YM Initiative — A8HX4 — position and weather

sailwx.info

Track history (hours):
 
Tides and Currents Weather Stations Pressure Air Temp Water Temp Dewpoint Dewpoint Depression Visibility Wind Speed Wind Dir Waves Ship Positions

YM Initiative

Last reported at 2017-May-22 21:27 UTC. Time now 2017-May-24 04:05 UTC.
Position N 22°30' E 119°52'.

Length 173 m; draft 7.7 m.

Type: Cargo ship. MMSI: 635961368.

Date/timePositionNaut miles runAvg speedWind from/ knotsBaromVisibWave heightAir tempDewpointWater temp
2017-May-22 21:27N 22°30' E 119°52'614.2
2017-May-22 21:00N 22°31' E 119°58'612.3
2017-May-22 20:29N 22°32' E 120°05'612.4
2017-May-22 19:59N 22°33' E 120°12'611.7
2017-May-22 19:30N 22°33' E 120°18'1 2.7
2017-May-22 18:59N 22°33' E 120°19'0 0.0
2017-May-22 10:41N 22°33' E 120°19'0 0.9
2017-May-22 10:30N 22°33' E 120°19'3 6.5
2017-May-22 10:00N 22°32' E 120°16'3 6.9
2017-May-22 09:30N 22°32' E 120°12'510.7
2017-May-22 09:00N 22°37' E 120°09'711.8
2017-May-22 08:24N 22°43' E 120°06'616.2
2017-May-22 08:00N 22°49' E 120°03'  
2017-May-19 14:00N 31°18' E 125°46'815.3
2017-May-19 13:29N 31°25' E 125°51'  
2017-May-13 04:35N 24°18' E 118°33'116.2
2017-May-13 04:30N 24°18' E 118°32'1016.1
2017-May-13 03:53N 24°18' E 118°21'616.5
2017-May-13 03:30N 24°19' E 118°14'714.1
2017-May-13 03:00N 24°23' E 118°08'611.8
2017-May-13 02:30N 24°27' E 118°03'5 9.7
2017-May-13 02:00N 24°31' E 118°05'0 0.1
2017-May-13 01:27N 24°31' E 118°05'0 0.0
2017-May-13 00:57N 24°31' E 118°05'0 0.0
2017-May-13 00:30N 24°31' E 118°05'0 0.0
2017-May-12 23:51N 24°31' E 118°05'0 0.0
2017-May-12 23:30N 24°31' E 118°05'0 0.0
2017-May-12 23:00N 24°31' E 118°05'0 0.0
2017-May-12 22:30N 24°31' E 118°05'0 0.0
2017-May-12 21:57N 24°31' E 118°05'  
Track history (hours):
 
Tides and Currents Weather Stations Pressure Air Temp Water Temp Dewpoint Dewpoint Depression Visibility Wind Speed Wind Dir Waves Ship Positions

YM Initiative

Last reported at 2017-May-22 21:27 UTC. Time now 2017-May-24 04:05 UTC.
Position N 22°30' E 119°52'.

Length 173 m; draft 7.7 m.

Type: Cargo ship. MMSI: 635961368.

Date/timePositionNaut miles runAvg speedWind from/ knotsBaromVisibWave heightAir tempDewpointWater temp
2017-May-22 21:27N 22°30' E 119°52'614.2
2017-May-22 21:00N 22°31' E 119°58'612.3
2017-May-22 20:29N 22°32' E 120°05'612.4
2017-May-22 19:59N 22°33' E 120°12'611.7
2017-May-22 19:30N 22°33' E 120°18'1 2.7
2017-May-22 18:59N 22°33' E 120°19'0 0.0
2017-May-22 10:41N 22°33' E 120°19'0 0.9
2017-May-22 10:30N 22°33' E 120°19'3 6.5
2017-May-22 10:00N 22°32' E 120°16'3 6.9
2017-May-22 09:30N 22°32' E 120°12'510.7
2017-May-22 09:00N 22°37' E 120°09'711.8
2017-May-22 08:24N 22°43' E 120°06'616.2
2017-May-22 08:00N 22°49' E 120°03'  
2017-May-19 14:00N 31°18' E 125°46'815.3
2017-May-19 13:29N 31°25' E 125°51'  
2017-May-13 04:35N 24°18' E 118°33'116.2
2017-May-13 04:30N 24°18' E 118°32'1016.1
2017-May-13 03:53N 24°18' E 118°21'616.5
2017-May-13 03:30N 24°19' E 118°14'714.1
2017-May-13 03:00N 24°23' E 118°08'611.8
2017-May-13 02:30N 24°27' E 118°03'5 9.7
2017-May-13 02:00N 24°31' E 118°05'0 0.1
2017-May-13 01:27N 24°31' E 118°05'0 0.0
2017-May-13 00:57N 24°31' E 118°05'0 0.0
2017-May-13 00:30N 24°31' E 118°05'0 0.0
2017-May-12 23:51N 24°31' E 118°05'0 0.0
2017-May-12 23:30N 24°31' E 118°05'0 0.0
2017-May-12 23:00N 24°31' E 118°05'0 0.0
2017-May-12 22:30N 24°31' E 118°05'0 0.0
2017-May-12 21:57N 24°31' E 118°05'  

Dump ship's entire track history